sensor_id;sensor_type;location;lat;lon;timestamp;P1;durP1;ratioP1;P2;durP2;ratioP2
19492;SDS011;9887;54.366;10.958;2022-09-09T00:00:11;17.58;;;11.93;;
19492;SDS011;9887;54.366;10.958;2022-09-09T00:02:40;15.95;;;12.13;;
19492;SDS011;9887;54.366;10.958;2022-09-09T00:05:17;18.20;;;12.07;;
19492;SDS011;9887;54.366;10.958;2022-09-09T00:07:53;20.15;;;13.00;;
19492;SDS011;9887;54.366;10.958;2022-09-09T00:10:26;18.17;;;12.18;;
19492;SDS011;9887;54.366;10.958;2022-09-09T00:12:59;19.30;;;13.35;;
19492;SDS011;9887;54.366;10.958;2022-09-09T00:15:36;18.65;;;13.52;;
19492;SDS011;9887;54.366;10.958;2022-09-09T00:18:11;18.98;;;12.95;;
19492;SDS011;9887;54.366;10.958;2022-09-09T00:20:45;17.50;;;13.45;;
19492;SDS011;9887;54.366;10.958;2022-09-09T00:23:19;17.75;;;13.10;;
19492;SDS011;9887;54.366;10.958;2022-09-09T00:25:54;19.50;;;12.90;;
19492;SDS011;9887;54.366;10.958;2022-09-09T00:28:27;17.85;;;12.85;;
19492;SDS011;9887;54.366;10.958;2022-09-09T00:31:00;20.25;;;13.27;;
19492;SDS011;9887;54.366;10.958;2022-09-09T00:33:35;21.48;;;13.00;;
19492;SDS011;9887;54.366;10.958;2022-09-09T00:36:07;18.23;;;13.63;;
19492;SDS011;9887;54.366;10.958;2022-09-09T00:38:42;20.65;;;13.00;;
19492;SDS011;9887;54.366;10.958;2022-09-09T00:41:17;18.63;;;13.38;;
19492;SDS011;9887;54.366;10.958;2022-09-09T00:43:52;18.55;;;12.82;;
19492;SDS011;9887;54.366;10.958;2022-09-09T00:46:40;19.35;;;13.55;;
19492;SDS011;9887;54.366;10.958;2022-09-09T00:49:20;21.23;;;13.85;;
19492;SDS011;9887;54.366;10.958;2022-09-09T00:51:59;20.23;;;13.60;;
19492;SDS011;9887;54.366;10.958;2022-09-09T00:54:40;20.42;;;14.25;;
19492;SDS011;9887;54.366;10.958;2022-09-09T00:57:22;21.70;;;14.57;;
19492;SDS011;9887;54.366;10.958;2022-09-09T00:59:56;21.25;;;14.43;;
19492;SDS011;9887;54.366;10.958;2022-09-09T01:02:35;19.92;;;14.73;;
19492;SDS011;9887;54.366;10.958;2022-09-09T01:05:12;19.77;;;14.23;;
19492;SDS011;9887;54.366;10.958;2022-09-09T01:07:46;21.80;;;13.50;;
19492;SDS011;9887;54.366;10.958;2022-09-09T01:10:25;23.45;;;15.80;;
19492;SDS011;9887;54.366;10.958;2022-09-09T01:12:59;22.70;;;14.88;;
19492;SDS011;9887;54.366;10.958;2022-09-09T01:15:32;25.80;;;15.85;;
19492;SDS011;9887;54.366;10.958;2022-09-09T01:18:04;23.83;;;16.02;;
19492;SDS011;9887;54.366;10.958;2022-09-09T01:20:42;26.67;;;16.42;;
19492;SDS011;9887;54.366;10.958;2022-09-09T01:26:19;24.33;;;16.67;;
19492;SDS011;9887;54.366;10.958;2022-09-09T01:28:53;23.17;;;16.05;;
19492;SDS011;9887;54.366;10.958;2022-09-09T01:31:30;25.23;;;16.27;;
19492;SDS011;9887;54.366;10.958;2022-09-09T01:34:02;25.88;;;16.27;;
19492;SDS011;9887;54.366;10.958;2022-09-09T01:36:38;28.15;;;18.27;;
19492;SDS011;9887;54.366;10.958;2022-09-09T01:39:11;29.17;;;16.35;;
19492;SDS011;9887;54.366;10.958;2022-09-09T01:41:42;27.15;;;15.82;;
19492;SDS011;9887;54.366;10.958;2022-09-09T01:44:12;30.65;;;17.02;;
19492;SDS011;9887;54.366;10.958;2022-09-09T01:46:43;28.85;;;16.80;;
19492;SDS011;9887;54.366;10.958;2022-09-09T01:49:15;29.73;;;16.75;;
19492;SDS011;9887;54.366;10.958;2022-09-09T01:51:45;33.55;;;17.63;;
19492;SDS011;9887;54.366;10.958;2022-09-09T01:54:17;27.52;;;17.05;;
19492;SDS011;9887;54.366;10.958;2022-09-09T01:56:55;27.08;;;16.58;;
19492;SDS011;9887;54.366;10.958;2022-09-09T01:59:53;31.20;;;17.52;;
19492;SDS011;9887;54.366;10.958;2022-09-09T02:02:41;29.80;;;16.50;;
19492;SDS011;9887;54.366;10.958;2022-09-09T02:05:24;27.83;;;16.50;;
19492;SDS011;9887;54.366;10.958;2022-09-09T02:08:00;28.52;;;17.05;;
19492;SDS011;9887;54.366;10.958;2022-09-09T02:10:45;29.95;;;16.75;;
19492;SDS011;9887;54.366;10.958;2022-09-09T02:13:30;31.48;;;17.80;;
19492;SDS011;9887;54.366;10.958;2022-09-09T02:16:03;33.30;;;16.60;;
19492;SDS011;9887;54.366;10.958;2022-09-09T02:18:35;31.77;;;17.17;;
19492;SDS011;9887;54.366;10.958;2022-09-09T02:21:09;30.15;;;16.10;;
19492;SDS011;9887;54.366;10.958;2022-09-09T02:23:40;29.08;;;15.77;;
19492;SDS011;9887;54.366;10.958;2022-09-09T02:26:12;26.92;;;15.43;;
19492;SDS011;9887;54.366;10.958;2022-09-09T02:28:50;27.95;;;14.43;;
19492;SDS011;9887;54.366;10.958;2022-09-09T02:31:21;26.35;;;15.18;;
19492;SDS011;9887;54.366;10.958;2022-09-09T02:33:59;27.55;;;15.77;;
19492;SDS011;9887;54.366;10.958;2022-09-09T02:36:31;24.48;;;14.07;;
19492;SDS011;9887;54.366;10.958;2022-09-09T02:39:01;28.92;;;15.35;;
19492;SDS011;9887;54.366;10.958;2022-09-09T02:41:33;27.30;;;15.65;;
19492;SDS011;9887;54.366;10.958;2022-09-09T02:44:08;27.90;;;16.17;;
19492;SDS011;9887;54.366;10.958;2022-09-09T02:46:45;25.65;;;15.13;;
19492;SDS011;9887;54.366;10.958;2022-09-09T02:49:28;24.10;;;14.93;;
19492;SDS011;9887;54.366;10.958;2022-09-09T02:52:08;29.70;;;16.13;;
19492;SDS011;9887;54.366;10.958;2022-09-09T02:54:41;24.98;;;14.38;;
19492;SDS011;9887;54.366;10.958;2022-09-09T02:57:12;23.38;;;14.30;;
19492;SDS011;9887;54.366;10.958;2022-09-09T02:59:48;25.85;;;15.63;;
19492;SDS011;9887;54.366;10.958;2022-09-09T03:02:18;27.35;;;15.50;;
19492;SDS011;9887;54.366;10.958;2022-09-09T03:04:51;28.40;;;14.68;;
19492;SDS011;9887;54.366;10.958;2022-09-09T03:07:20;26.60;;;16.25;;
19492;SDS011;9887;54.366;10.958;2022-09-09T03:09:50;28.92;;;15.60;;
19492;SDS011;9887;54.366;10.958;2022-09-09T03:12:21;30.88;;;16.52;;
19492;SDS011;9887;54.366;10.958;2022-09-09T03:14:51;29.48;;;15.57;;
19492;SDS011;9887;54.366;10.958;2022-09-09T03:17:19;32.70;;;17.10;;
19492;SDS011;9887;54.366;10.958;2022-09-09T03:19:51;28.98;;;15.20;;
19492;SDS011;9887;54.366;10.958;2022-09-09T03:22:21;28.33;;;15.50;;
19492;SDS011;9887;54.366;10.958;2022-09-09T03:24:49;33.05;;;17.20;;
19492;SDS011;9887;54.366;10.958;2022-09-09T03:27:17;34.13;;;18.00;;
19492;SDS011;9887;54.366;10.958;2022-09-09T03:29:46;33.55;;;17.27;;
19492;SDS011;9887;54.366;10.958;2022-09-09T03:32:22;31.98;;;17.50;;
19492;SDS011;9887;54.366;10.958;2022-09-09T03:34:53;35.28;;;17.83;;
19492;SDS011;9887;54.366;10.958;2022-09-09T03:37:21;32.92;;;18.83;;
19492;SDS011;9887;54.366;10.958;2022-09-09T03:39:49;32.42;;;17.75;;
19492;SDS011;9887;54.366;10.958;2022-09-09T03:42:18;32.30;;;17.67;;
19492;SDS011;9887;54.366;10.958;2022-09-09T03:44:49;33.17;;;17.38;;
19492;SDS011;9887;54.366;10.958;2022-09-09T03:47:21;38.00;;;18.95;;
19492;SDS011;9887;54.366;10.958;2022-09-09T03:49:54;36.10;;;18.88;;
19492;SDS011;9887;54.366;10.958;2022-09-09T03:52:22;40.08;;;19.48;;
19492;SDS011;9887;54.366;10.958;2022-09-09T03:54:53;38.22;;;19.40;;
19492;SDS011;9887;54.366;10.958;2022-09-09T03:57:22;37.65;;;20.23;;
19492;SDS011;9887;54.366;10.958;2022-09-09T03:59:50;36.67;;;20.58;;
19492;SDS011;9887;54.366;10.958;2022-09-09T04:02:18;41.95;;;21.45;;
19492;SDS011;9887;54.366;10.958;2022-09-09T04:04:49;38.10;;;20.02;;
19492;SDS011;9887;54.366;10.958;2022-09-09T04:07:17;41.40;;;20.80;;
19492;SDS011;9887;54.366;10.958;2022-09-09T04:09:45;44.95;;;21.48;;
19492;SDS011;9887;54.366;10.958;2022-09-09T04:12:13;49.05;;;22.17;;
19492;SDS011;9887;54.366;10.958;2022-09-09T04:14:42;43.03;;;21.55;;
19492;SDS011;9887;54.366;10.958;2022-09-09T04:17:10;44.30;;;22.52;;
19492;SDS011;9887;54.366;10.958;2022-09-09T04:19:38;48.17;;;22.48;;
19492;SDS011;9887;54.366;10.958;2022-09-09T04:22:08;43.15;;;21.80;;
19492;SDS011;9887;54.366;10.958;2022-09-09T04:24:36;52.88;;;23.02;;
19492;SDS011;9887;54.366;10.958;2022-09-09T04:27:04;52.28;;;24.00;;
19492;SDS011;9887;54.366;10.958;2022-09-09T04:29:34;66.05;;;25.35;;
19492;SDS011;9887;54.366;10.958;2022-09-09T04:32:02;63.80;;;25.15;;
19492;SDS011;9887;54.366;10.958;2022-09-09T04:34:31;66.70;;;26.92;;
19492;SDS011;9887;54.366;10.958;2022-09-09T04:36:59;57.90;;;24.70;;
19492;SDS011;9887;54.366;10.958;2022-09-09T04:39:29;66.93;;;25.98;;
19492;SDS011;9887;54.366;10.958;2022-09-09T04:41:58;62.75;;;24.13;;
19492;SDS011;9887;54.366;10.958;2022-09-09T04:44:26;54.00;;;24.13;;
19492;SDS011;9887;54.366;10.958;2022-09-09T04:46:54;54.92;;;22.42;;
19492;SDS011;9887;54.366;10.958;2022-09-09T04:49:22;60.80;;;23.10;;
19492;SDS011;9887;54.366;10.958;2022-09-09T04:51:50;57.45;;;23.40;;
19492;SDS011;9887;54.366;10.958;2022-09-09T04:54:18;54.53;;;21.92;;
19492;SDS011;9887;54.366;10.958;2022-09-09T04:56:47;63.15;;;23.10;;
19492;SDS011;9887;54.366;10.958;2022-09-09T04:59:17;54.30;;;22.77;;
19492;SDS011;9887;54.366;10.958;2022-09-09T05:01:50;46.50;;;20.52;;
19492;SDS011;9887;54.366;10.958;2022-09-09T05:04:19;54.08;;;22.50;;
19492;SDS011;9887;54.366;10.958;2022-09-09T05:06:47;47.90;;;20.65;;
19492;SDS011;9887;54.366;10.958;2022-09-09T05:09:15;45.17;;;21.02;;
19492;SDS011;9887;54.366;10.958;2022-09-09T05:11:45;47.90;;;20.65;;
19492;SDS011;9887;54.366;10.958;2022-09-09T05:14:28;54.80;;;22.92;;
19492;SDS011;9887;54.366;10.958;2022-09-09T05:16:59;59.28;;;23.38;;
19492;SDS011;9887;54.366;10.958;2022-09-09T05:19:27;52.50;;;23.38;;
19492;SDS011;9887;54.366;10.958;2022-09-09T05:21:55;57.40;;;22.30;;
19492;SDS011;9887;54.366;10.958;2022-09-09T05:24:29;55.83;;;22.80;;
19492;SDS011;9887;54.366;10.958;2022-09-09T05:26:59;53.05;;;22.90;;
19492;SDS011;9887;54.366;10.958;2022-09-09T05:29:30;49.10;;;21.70;;
19492;SDS011;9887;54.366;10.958;2022-09-09T05:32:00;52.85;;;21.70;;
19492;SDS011;9887;54.366;10.958;2022-09-09T05:34:29;54.08;;;21.60;;
19492;SDS011;9887;54.366;10.958;2022-09-09T05:36:56;50.50;;;21.17;;
19492;SDS011;9887;54.366;10.958;2022-09-09T05:39:25;48.30;;;21.25;;
19492;SDS011;9887;54.366;10.958;2022-09-09T05:41:53;58.25;;;22.33;;
19492;SDS011;9887;54.366;10.958;2022-09-09T05:44:21;60.88;;;23.52;;
19492;SDS011;9887;54.366;10.958;2022-09-09T05:46:55;47.67;;;20.35;;
19492;SDS011;9887;54.366;10.958;2022-09-09T05:49:24;51.22;;;22.30;;
19492;SDS011;9887;54.366;10.958;2022-09-09T05:51:52;48.05;;;21.13;;
19492;SDS011;9887;54.366;10.958;2022-09-09T05:54:22;46.20;;;21.10;;
19492;SDS011;9887;54.366;10.958;2022-09-09T05:56:51;44.67;;;22.25;;
19492;SDS011;9887;54.366;10.958;2022-09-09T05:59:19;48.83;;;21.65;;
19492;SDS011;9887;54.366;10.958;2022-09-09T06:01:51;42.60;;;22.25;;
19492;SDS011;9887;54.366;10.958;2022-09-09T06:04:32;44.08;;;20.90;;
19492;SDS011;9887;54.366;10.958;2022-09-09T06:07:01;44.95;;;21.00;;
19492;SDS011;9887;54.366;10.958;2022-09-09T06:09:29;37.08;;;21.88;;
19492;SDS011;9887;54.366;10.958;2022-09-09T06:11:57;46.25;;;21.50;;
19492;SDS011;9887;54.366;10.958;2022-09-09T06:14:25;35.92;;;18.52;;
19492;SDS011;9887;54.366;10.958;2022-09-09T06:16:57;36.10;;;18.75;;
19492;SDS011;9887;54.366;10.958;2022-09-09T06:19:28;32.13;;;18.70;;
19492;SDS011;9887;54.366;10.958;2022-09-09T06:21:59;34.70;;;19.67;;
19492;SDS011;9887;54.366;10.958;2022-09-09T06:24:29;35.95;;;18.63;;
19492;SDS011;9887;54.366;10.958;2022-09-09T06:27:00;32.00;;;18.23;;
19492;SDS011;9887;54.366;10.958;2022-09-09T06:29:32;34.03;;;18.13;;
19492;SDS011;9887;54.366;10.958;2022-09-09T06:32:01;27.52;;;16.67;;
19492;SDS011;9887;54.366;10.958;2022-09-09T06:34:30;29.25;;;16.95;;
19492;SDS011;9887;54.366;10.958;2022-09-09T06:37:00;34.25;;;18.92;;
19492;SDS011;9887;54.366;10.958;2022-09-09T06:39:34;33.47;;;18.40;;
19492;SDS011;9887;54.366;10.958;2022-09-09T06:42:02;30.63;;;17.88;;
19492;SDS011;9887;54.366;10.958;2022-09-09T06:44:49;24.73;;;15.88;;
19492;SDS011;9887;54.366;10.958;2022-09-09T06:47:25;27.95;;;16.67;;
19492;SDS011;9887;54.366;10.958;2022-09-09T06:49:56;30.23;;;16.60;;
19492;SDS011;9887;54.366;10.958;2022-09-09T06:52:26;26.52;;;16.08;;
19492;SDS011;9887;54.366;10.958;2022-09-09T06:54:55;27.77;;;16.38;;
19492;SDS011;9887;54.366;10.958;2022-09-09T06:57:25;25.25;;;15.07;;
19492;SDS011;9887;54.366;10.958;2022-09-09T07:00:04;29.95;;;16.38;;
19492;SDS011;9887;54.366;10.958;2022-09-09T07:02:33;26.98;;;16.27;;
19492;SDS011;9887;54.366;10.958;2022-09-09T07:05:06;28.20;;;17.52;;
19492;SDS011;9887;54.366;10.958;2022-09-09T07:07:37;26.55;;;16.42;;
19492;SDS011;9887;54.366;10.958;2022-09-09T07:10:06;28.38;;;16.42;;
19492;SDS011;9887;54.366;10.958;2022-09-09T07:12:35;32.35;;;17.67;;
19492;SDS011;9887;54.366;10.958;2022-09-09T07:15:04;29.60;;;17.30;;
19492;SDS011;9887;54.366;10.958;2022-09-09T07:17:33;29.02;;;17.40;;
19492;SDS011;9887;54.366;10.958;2022-09-09T07:20:01;30.63;;;17.33;;
19492;SDS011;9887;54.366;10.958;2022-09-09T07:22:31;28.42;;;16.90;;
19492;SDS011;9887;54.366;10.958;2022-09-09T07:25:00;30.60;;;17.08;;
19492;SDS011;9887;54.366;10.958;2022-09-09T07:27:29;32.85;;;18.30;;
19492;SDS011;9887;54.366;10.958;2022-09-09T07:29:57;29.33;;;16.67;;
19492;SDS011;9887;54.366;10.958;2022-09-09T07:32:25;30.17;;;16.60;;
19492;SDS011;9887;54.366;10.958;2022-09-09T07:34:53;33.83;;;17.23;;
19492;SDS011;9887;54.366;10.958;2022-09-09T07:37:21;30.73;;;17.50;;
19492;SDS011;9887;54.366;10.958;2022-09-09T07:39:51;31.38;;;17.67;;
19492;SDS011;9887;54.366;10.958;2022-09-09T07:42:20;27.75;;;16.65;;
19492;SDS011;9887;54.366;10.958;2022-09-09T07:44:48;33.80;;;18.15;;
19492;SDS011;9887;54.366;10.958;2022-09-09T07:47:20;28.52;;;17.98;;
19492;SDS011;9887;54.366;10.958;2022-09-09T07:49:50;29.98;;;17.25;;
19492;SDS011;9887;54.366;10.958;2022-09-09T07:52:24;31.42;;;17.02;;
19492;SDS011;9887;54.366;10.958;2022-09-09T07:54:57;27.35;;;15.93;;
19492;SDS011;9887;54.366;10.958;2022-09-09T07:57:28;27.80;;;16.35;;
19492;SDS011;9887;54.366;10.958;2022-09-09T07:59:57;25.48;;;15.45;;
19492;SDS011;9887;54.366;10.958;2022-09-09T08:02:25;26.05;;;16.23;;
19492;SDS011;9887;54.366;10.958;2022-09-09T08:04:55;32.45;;;17.30;;
19492;SDS011;9887;54.366;10.958;2022-09-09T08:07:23;27.00;;;16.42;;
19492;SDS011;9887;54.366;10.958;2022-09-09T08:09:53;26.33;;;16.20;;
19492;SDS011;9887;54.366;10.958;2022-09-09T08:12:25;28.10;;;16.15;;
19492;SDS011;9887;54.366;10.958;2022-09-09T08:14:56;30.42;;;17.25;;
19492;SDS011;9887;54.366;10.958;2022-09-09T08:17:28;27.83;;;16.50;;
19492;SDS011;9887;54.366;10.958;2022-09-09T08:19:58;30.20;;;16.33;;
19492;SDS011;9887;54.366;10.958;2022-09-09T08:22:29;21.98;;;15.75;;
19492;SDS011;9887;54.366;10.958;2022-09-09T08:24:58;20.58;;;14.82;;
19492;SDS011;9887;54.366;10.958;2022-09-09T08:27:26;25.58;;;16.38;;
19492;SDS011;9887;54.366;10.958;2022-09-09T08:29:55;22.98;;;16.02;;
19492;SDS011;9887;54.366;10.958;2022-09-09T08:32:23;25.00;;;16.00;;
19492;SDS011;9887;54.366;10.958;2022-09-09T08:34:52;21.65;;;15.52;;
19492;SDS011;9887;54.366;10.958;2022-09-09T08:37:27;26.23;;;16.52;;
19492;SDS011;9887;54.366;10.958;2022-09-09T08:39:55;24.08;;;16.80;;
19492;SDS011;9887;54.366;10.958;2022-09-09T08:42:31;22.73;;;15.10;;
19492;SDS011;9887;54.366;10.958;2022-09-09T08:45:14;22.25;;;14.88;;
19492;SDS011;9887;54.366;10.958;2022-09-09T08:47:52;23.63;;;13.82;;
19492;SDS011;9887;54.366;10.958;2022-09-09T08:50:29;23.73;;;15.73;;
19492;SDS011;9887;54.366;10.958;2022-09-09T08:53:05;21.63;;;15.48;;
19492;SDS011;9887;54.366;10.958;2022-09-09T08:55:40;27.13;;;15.77;;
19492;SDS011;9887;54.366;10.958;2022-09-09T08:58:14;23.63;;;15.73;;
19492;SDS011;9887;54.366;10.958;2022-09-09T09:00:52;20.27;;;13.48;;
19492;SDS011;9887;54.366;10.958;2022-09-09T09:03:35;21.17;;;14.30;;
19492;SDS011;9887;54.366;10.958;2022-09-09T09:06:13;22.55;;;13.85;;
19492;SDS011;9887;54.366;10.958;2022-09-09T09:08:56;18.05;;;12.23;;
19492;SDS011;9887;54.366;10.958;2022-09-09T09:11:34;16.15;;;12.60;;
19492;SDS011;9887;54.366;10.958;2022-09-09T09:14:07;19.05;;;13.35;;
19492;SDS011;9887;54.366;10.958;2022-09-09T09:16:41;22.60;;;12.52;;
19492;SDS011;9887;54.366;10.958;2022-09-09T09:19:16;19.38;;;12.73;;
19492;SDS011;9887;54.366;10.958;2022-09-09T09:21:48;16.88;;;12.38;;
19492;SDS011;9887;54.366;10.958;2022-09-09T09:24:20;20.35;;;12.18;;
19492;SDS011;9887;54.366;10.958;2022-09-09T09:26:53;21.15;;;13.07;;
19492;SDS011;9887;54.366;10.958;2022-09-09T09:29:23;18.40;;;12.73;;
19492;SDS011;9887;54.366;10.958;2022-09-09T09:31:55;19.55;;;12.70;;
19492;SDS011;9887;54.366;10.958;2022-09-09T09:34:27;18.30;;;12.25;;
19492;SDS011;9887;54.366;10.958;2022-09-09T09:36:56;18.52;;;12.63;;
19492;SDS011;9887;54.366;10.958;2022-09-09T09:39:30;23.05;;;12.27;;
19492;SDS011;9887;54.366;10.958;2022-09-09T09:42:22;16.90;;;11.75;;
19492;SDS011;9887;54.366;10.958;2022-09-09T09:44:54;16.40;;;11.35;;
19492;SDS011;9887;54.366;10.958;2022-09-09T09:47:23;15.80;;;11.15;;
19492;SDS011;9887;54.366;10.958;2022-09-09T09:49:59;14.85;;;11.27;;
19492;SDS011;9887;54.366;10.958;2022-09-09T09:52:34;17.92;;;10.38;;
19492;SDS011;9887;54.366;10.958;2022-09-09T09:55:11;15.40;;;10.52;;
19492;SDS011;9887;54.366;10.958;2022-09-09T09:57:44;16.20;;;10.68;;
19492;SDS011;9887;54.366;10.958;2022-09-09T10:00:13;15.70;;;10.32;;
19492;SDS011;9887;54.366;10.958;2022-09-09T10:02:48;15.50;;;11.35;;
19492;SDS011;9887;54.366;10.958;2022-09-09T10:05:23;13.95;;;9.88;;
19492;SDS011;9887;54.366;10.958;2022-09-09T10:08:02;14.10;;;9.68;;
19492;SDS011;9887;54.366;10.958;2022-09-09T10:10:40;14.35;;;8.75;;
19492;SDS011;9887;54.366;10.958;2022-09-09T10:13:18;14.23;;;8.93;;
19492;SDS011;9887;54.366;10.958;2022-09-09T10:15:53;17.85;;;9.43;;
19492;SDS011;9887;54.366;10.958;2022-09-09T10:18:36;16.67;;;8.63;;
19492;SDS011;9887;54.366;10.958;2022-09-09T10:21:15;12.25;;;8.07;;
19492;SDS011;9887;54.366;10.958;2022-09-09T10:24:07;16.10;;;8.68;;
19492;SDS011;9887;54.366;10.958;2022-09-09T10:26:50;11.82;;;8.95;;
19492;SDS011;9887;54.366;10.958;2022-09-09T10:29:30;18.67;;;8.48;;
19492;SDS011;9887;54.366;10.958;2022-09-09T10:32:29;11.05;;;7.88;;
19492;SDS011;9887;54.366;10.958;2022-09-09T10:35:09;12.05;;;8.57;;
19492;SDS011;9887;54.366;10.958;2022-09-09T10:37:51;14.05;;;8.23;;
19492;SDS011;9887;54.366;10.958;2022-09-09T10:40:42;10.98;;;7.65;;
19492;SDS011;9887;54.366;10.958;2022-09-09T10:43:21;12.07;;;8.43;;
19492;SDS011;9887;54.366;10.958;2022-09-09T10:46:04;13.90;;;8.88;;
19492;SDS011;9887;54.366;10.958;2022-09-09T10:48:41;11.32;;;8.07;;
19492;SDS011;9887;54.366;10.958;2022-09-09T10:51:25;18.33;;;8.93;;
19492;SDS011;9887;54.366;10.958;2022-09-09T10:56:49;12.35;;;8.35;;
19492;SDS011;9887;54.366;10.958;2022-09-09T10:59:23;13.50;;;8.63;;
19492;SDS011;9887;54.366;10.958;2022-09-09T11:01:55;11.60;;;8.27;;
19492;SDS011;9887;54.366;10.958;2022-09-09T11:04:27;11.20;;;8.88;;
19492;SDS011;9887;54.366;10.958;2022-09-09T11:07:02;12.02;;;8.27;;
19492;SDS011;9887;54.366;10.958;2022-09-09T11:09:38;12.07;;;8.80;;
19492;SDS011;9887;54.366;10.958;2022-09-09T11:12:12;12.48;;;8.68;;
19492;SDS011;9887;54.366;10.958;2022-09-09T11:14:47;13.15;;;8.10;;
19492;SDS011;9887;54.366;10.958;2022-09-09T11:17:18;16.05;;;8.55;;
19492;SDS011;9887;54.366;10.958;2022-09-09T11:19:50;12.23;;;8.23;;
19492;SDS011;9887;54.366;10.958;2022-09-09T11:22:22;11.77;;;8.43;;
19492;SDS011;9887;54.366;10.958;2022-09-09T11:24:57;10.88;;;7.95;;
19492;SDS011;9887;54.366;10.958;2022-09-09T11:27:31;10.38;;;7.57;;
19492;SDS011;9887;54.366;10.958;2022-09-09T11:30:12;10.52;;;7.22;;
19492;SDS011;9887;54.366;10.958;2022-09-09T11:33:08;14.55;;;8.27;;
19492;SDS011;9887;54.366;10.958;2022-09-09T11:36:10;17.25;;;7.95;;
19492;SDS011;9887;54.366;10.958;2022-09-09T11:38:52;11.38;;;7.40;;
19492;SDS011;9887;54.366;10.958;2022-09-09T11:41:32;10.73;;;7.68;;
19492;SDS011;9887;54.366;10.958;2022-09-09T11:44:09;10.95;;;7.60;;
19492;SDS011;9887;54.366;10.958;2022-09-09T11:46:39;12.13;;;7.70;;
19492;SDS011;9887;54.366;10.958;2022-09-09T11:49:21;12.15;;;7.53;;
19492;SDS011;9887;54.366;10.958;2022-09-09T11:51:54;11.73;;;7.50;;
19492;SDS011;9887;54.366;10.958;2022-09-09T11:54:28;12.43;;;7.28;;
19492;SDS011;9887;54.366;10.958;2022-09-09T11:56:58;11.27;;;7.30;;
19492;SDS011;9887;54.366;10.958;2022-09-09T11:59:26;11.68;;;7.85;;
19492;SDS011;9887;54.366;10.958;2022-09-09T12:01:56;14.75;;;8.88;;
19492;SDS011;9887;54.366;10.958;2022-09-09T12:04:30;12.27;;;9.07;;
19492;SDS011;9887;54.366;10.958;2022-09-09T12:07:21;14.30;;;9.20;;
19492;SDS011;9887;54.366;10.958;2022-09-09T12:09:58;13.45;;;8.73;;
19492;SDS011;9887;54.366;10.958;2022-09-09T12:12:31;14.50;;;9.32;;
19492;SDS011;9887;54.366;10.958;2022-09-09T12:15:16;13.82;;;8.75;;
19492;SDS011;9887;54.366;10.958;2022-09-09T12:17:47;15.68;;;9.80;;
19492;SDS011;9887;54.366;10.958;2022-09-09T12:20:18;14.77;;;8.77;;
19492;SDS011;9887;54.366;10.958;2022-09-09T12:22:54;13.77;;;8.90;;
19492;SDS011;9887;54.366;10.958;2022-09-09T12:25:35;13.55;;;8.98;;
19492;SDS011;9887;54.366;10.958;2022-09-09T12:28:17;13.45;;;8.90;;
19492;SDS011;9887;54.366;10.958;2022-09-09T12:30:49;12.43;;;8.32;;
19492;SDS011;9887;54.366;10.958;2022-09-09T12:33:22;12.20;;;7.80;;
19492;SDS011;9887;54.366;10.958;2022-09-09T12:35:51;14.90;;;7.88;;
19492;SDS011;9887;54.366;10.958;2022-09-09T12:38:26;12.23;;;7.25;;
19492;SDS011;9887;54.366;10.958;2022-09-09T12:41:01;11.55;;;6.10;;
19492;SDS011;9887;54.366;10.958;2022-09-09T12:43:29;10.73;;;7.07;;
19492;SDS011;9887;54.366;10.958;2022-09-09T12:45:57;11.63;;;7.55;;
19492;SDS011;9887;54.366;10.958;2022-09-09T12:48:31;10.75;;;6.25;;
19492;SDS011;9887;54.366;10.958;2022-09-09T12:51:03;9.48;;;5.97;;
19492;SDS011;9887;54.366;10.958;2022-09-09T12:53:44;9.77;;;5.80;;
19492;SDS011;9887;54.366;10.958;2022-09-09T12:56:19;10.23;;;6.32;;
19492;SDS011;9887;54.366;10.958;2022-09-09T12:58:49;11.38;;;6.78;;
19492;SDS011;9887;54.366;10.958;2022-09-09T13:01:20;10.60;;;6.88;;
19492;SDS011;9887;54.366;10.958;2022-09-09T13:03:50;11.23;;;7.35;;
19492;SDS011;9887;54.366;10.958;2022-09-09T13:06:19;11.07;;;6.50;;
19492;SDS011;9887;54.366;10.958;2022-09-09T13:08:55;9.95;;;6.63;;
19492;SDS011;9887;54.366;10.958;2022-09-09T13:11:27;10.63;;;6.03;;
19492;SDS011;9887;54.366;10.958;2022-09-09T13:13:58;11.05;;;7.25;;
19492;SDS011;9887;54.366;10.958;2022-09-09T13:16:27;11.88;;;6.88;;
19492;SDS011;9887;54.366;10.958;2022-09-09T13:18:59;10.20;;;6.60;;
19492;SDS011;9887;54.366;10.958;2022-09-09T13:21:33;9.25;;;5.50;;
19492;SDS011;9887;54.366;10.958;2022-09-09T13:24:03;8.75;;;6.00;;
19492;SDS011;9887;54.366;10.958;2022-09-09T13:26:35;9.05;;;5.13;;
19492;SDS011;9887;54.366;10.958;2022-09-09T13:29:08;8.65;;;5.25;;
19492;SDS011;9887;54.366;10.958;2022-09-09T13:31:44;12.45;;;5.63;;
19492;SDS011;9887;54.366;10.958;2022-09-09T13:34:13;7.43;;;4.72;;
19492;SDS011;9887;54.366;10.958;2022-09-09T13:36:54;7.55;;;4.07;;
19492;SDS011;9887;54.366;10.958;2022-09-09T13:39:27;6.82;;;4.13;;
19492;SDS011;9887;54.366;10.958;2022-09-09T13:41:57;6.43;;;3.17;;
19492;SDS011;9887;54.366;10.958;2022-09-09T13:44:26;7.18;;;4.20;;
19492;SDS011;9887;54.366;10.958;2022-09-09T13:47:00;9.35;;;4.53;;
19492;SDS011;9887;54.366;10.958;2022-09-09T13:49:34;7.28;;;3.97;;
19492;SDS011;9887;54.366;10.958;2022-09-09T13:52:03;8.18;;;4.07;;
19492;SDS011;9887;54.366;10.958;2022-09-09T13:54:33;7.80;;;3.08;;
19492;SDS011;9887;54.366;10.958;2022-09-09T13:57:03;6.00;;;3.63;;
19492;SDS011;9887;54.366;10.958;2022-09-09T13:59:31;6.82;;;3.60;;
19492;SDS011;9887;54.366;10.958;2022-09-09T14:02:19;5.57;;;3.65;;
19492;SDS011;9887;54.366;10.958;2022-09-09T14:04:47;9.43;;;3.45;;
19492;SDS011;9887;54.366;10.958;2022-09-09T14:07:17;7.50;;;3.05;;
19492;SDS011;9887;54.366;10.958;2022-09-09T14:09:46;6.90;;;3.33;;
19492;SDS011;9887;54.366;10.958;2022-09-09T14:12:17;6.00;;;3.20;;
19492;SDS011;9887;54.366;10.958;2022-09-09T14:14:45;6.53;;;3.40;;
19492;SDS011;9887;54.366;10.958;2022-09-09T14:17:13;5.10;;;3.30;;
19492;SDS011;9887;54.366;10.958;2022-09-09T14:19:41;6.05;;;2.92;;
19492;SDS011;9887;54.366;10.958;2022-09-09T14:22:12;4.07;;;2.50;;
19492;SDS011;9887;54.366;10.958;2022-09-09T14:24:39;7.68;;;3.72;;
19492;SDS011;9887;54.366;10.958;2022-09-09T14:27:07;5.10;;;3.30;;
19492;SDS011;9887;54.366;10.958;2022-09-09T14:29:37;4.53;;;3.17;;
19492;SDS011;9887;54.366;10.958;2022-09-09T14:32:05;6.97;;;3.40;;
19492;SDS011;9887;54.366;10.958;2022-09-09T14:34:38;5.97;;;3.17;;
19492;SDS011;9887;54.366;10.958;2022-09-09T14:37:06;6.68;;;4.00;;
19492;SDS011;9887;54.366;10.958;2022-09-09T14:39:34;8.10;;;5.00;;
19492;SDS011;9887;54.366;10.958;2022-09-09T14:42:02;5.30;;;3.47;;
19492;SDS011;9887;54.366;10.958;2022-09-09T14:44:31;7.18;;;3.50;;
19492;SDS011;9887;54.366;10.958;2022-09-09T14:47:01;7.22;;;4.05;;
19492;SDS011;9887;54.366;10.958;2022-09-09T14:49:29;5.72;;;2.90;;
19492;SDS011;9887;54.366;10.958;2022-09-09T14:51:57;6.32;;;3.45;;
19492;SDS011;9887;54.366;10.958;2022-09-09T14:54:25;8.38;;;4.45;;
19492;SDS011;9887;54.366;10.958;2022-09-09T14:56:52;8.68;;;5.25;;
19492;SDS011;9887;54.366;10.958;2022-09-09T14:59:20;7.07;;;5.18;;
19492;SDS011;9887;54.366;10.958;2022-09-09T15:01:48;12.52;;;8.05;;
19492;SDS011;9887;54.366;10.958;2022-09-09T15:04:17;8.32;;;5.53;;
19492;SDS011;9887;54.366;10.958;2022-09-09T15:06:46;11.75;;;6.68;;